Portada
METAR-TAF:

METAR-TAF

Aeroports :

Ísafjörður, Islàndia

latitud: 66-03-29N, longitud: 23-08-07W, altitud: 2 m

Observació

L'informe es va fer fa 9 hores i 52 minuts, a les 15:50 UTC
Vent 29 kt del Sud-Oest amb ràfegues de 39 kt
Temperatura 6°C
Humitat 75%
Pressió 994 hPa
Visibilitat 10 km o més
Cel cobert a una alçada de 3000 ft
pluja

METAR: BIIS 171550Z 23029G39KT 9999 RA OVC030 06/02 Q0994

Hora: 01:42 (01:42 UTC)

Pronòstic

L'informe es va fer fa 9 hores i 32 minuts, a les 16:10 UTC
Pronòstic vàlid del 17 a les 17 UTC al 18 a les 02 UTC
Vent 28 kt del Sud-Oest amb ràfegues de 38 kt
Visibilitat 10 km o més
Cel cobert a una alçada de 2000 ft
pluja

TAF: BIIS 171610Z 1717/1802 23028G38KT 9999 RA OVC020

Observacions i pronòstics meteorològics de més de 4000 aeroports (METAR i TAF).

Les estacions disponibles són els punts grocs i vermells al mapa.

Posi el ratolí al punt desitjat per veure el nom de l'estació.

Feu clic per veure les observacions i els pronòstics meteorològics.

Per canviar el mapa: feu clic els botons verds amb una creu de color negre per apropar; al botó verd amb un guió per allunyar la imatge; o en les fletxes verdes per a mapes adjacents.


METAR-TAF: